SHJ weather

Sharjah International Airport
Sharjah, Sharjah Emirate, United Arab Emirates

Public forecast

Using degrees Celsius for public forecast. Weather courtesy of forecast.io.

METAR (pilot weather report)

Retrieved 2019/04/26 09:00 UTC (16 minutes ago):

OMSJ 260900Z 28010KT CAVOK 27/15 Q1013

TAF (pilot weather forecast)

Retrieved 2019/04/26 06:00 UTC (3 hours ago):

TAF OMSJ 260459Z 2606/2712 28013KT 9999 FEW030 BECMG 2616/2618 18005KT BECMG 2705/2707 28013KT